sensor_id;sensor_type;location;lat;lon;timestamp;temperature;humidity
24158;DHT22;12316;50.904;4.200;2022-09-03T00:02:47;20.80;99.40
24158;DHT22;12316;50.904;4.200;2022-09-03T00:08:16;20.90;99.40
24158;DHT22;12316;50.904;4.200;2022-09-03T00:10:52;20.90;99.40
24158;DHT22;12316;50.904;4.200;2022-09-03T00:13:28;21.00;99.40
24158;DHT22;12316;50.904;4.200;2022-09-03T00:15:56;20.90;99.70
24158;DHT22;12316;50.904;4.200;2022-09-03T00:18:28;20.90;99.80
24158;DHT22;12316;50.904;4.200;2022-09-03T00:21:05;20.90;99.80
24158;DHT22;12316;50.904;4.200;2022-09-03T00:23:35;20.90;99.90
24158;DHT22;12316;50.904;4.200;2022-09-03T00:31:44;20.80;99.90
24158;DHT22;12316;50.904;4.200;2022-09-03T00:34:22;20.90;99.90
24158;DHT22;12316;50.904;4.200;2022-09-03T00:36:49;20.90;99.90
24158;DHT22;12316;50.904;4.200;2022-09-03T00:39:18;21.00;99.90
24158;DHT22;12316;50.904;4.200;2022-09-03T00:55:33;20.90;99.90
24158;DHT22;12316;50.904;4.200;2022-09-03T01:00:38;20.80;99.90
24158;DHT22;12316;50.904;4.200;2022-09-03T01:05:47;20.70;99.90
24158;DHT22;12316;50.904;4.200;2022-09-03T01:11:10;20.80;99.90
24158;DHT22;12316;50.904;4.200;2022-09-03T01:19:21;20.70;99.90
24158;DHT22;12316;50.904;4.200;2022-09-03T01:24:54;20.70;99.90
24158;DHT22;12316;50.904;4.200;2022-09-03T01:30:23;20.60;99.90
24158;DHT22;12316;50.904;4.200;2022-09-03T01:33:07;20.60;99.90
24158;DHT22;12316;50.904;4.200;2022-09-03T01:35:37;20.60;99.90
24158;DHT22;12316;50.904;4.200;2022-09-03T01:40:59;20.60;99.90
24158;DHT22;12316;50.904;4.200;2022-09-03T01:44:10;20.50;99.90
24158;DHT22;12316;50.904;4.200;2022-09-03T01:46:42;20.40;99.90
24158;DHT22;12316;50.904;4.200;2022-09-03T01:51:53;20.50;99.90
24158;DHT22;12316;50.904;4.200;2022-09-03T01:54:50;20.50;99.90
24158;DHT22;12316;50.904;4.200;2022-09-03T01:57:29;20.50;99.90
24158;DHT22;12316;50.904;4.200;2022-09-03T02:02:28;20.40;99.90
24158;DHT22;12316;50.904;4.200;2022-09-03T02:05:03;20.40;99.90
24158;DHT22;12316;50.904;4.200;2022-09-03T02:07:35;20.30;99.90
24158;DHT22;12316;50.904;4.200;2022-09-03T02:10:03;20.30;99.90
24158;DHT22;12316;50.904;4.200;2022-09-03T02:12:32;20.30;99.90
24158;DHT22;12316;50.904;4.200;2022-09-03T02:15:06;20.30;99.90
24158;DHT22;12316;50.904;4.200;2022-09-03T02:17:33;20.30;99.90
24158;DHT22;12316;50.904;4.200;2022-09-03T02:20:04;20.30;99.90
24158;DHT22;12316;50.904;4.200;2022-09-03T02:22:31;20.30;99.90
24158;DHT22;12316;50.904;4.200;2022-09-03T02:24:58;20.30;99.90
24158;DHT22;12316;50.904;4.200;2022-09-03T02:27:25;20.20;99.90
24158;DHT22;12316;50.904;4.200;2022-09-03T02:29:51;20.20;99.90
24158;DHT22;12316;50.904;4.200;2022-09-03T02:32:18;20.10;99.90
24158;DHT22;12316;50.904;4.200;2022-09-03T02:34:43;20.20;99.90
24158;DHT22;12316;50.904;4.200;2022-09-03T02:37:14;20.20;99.90
24158;DHT22;12316;50.904;4.200;2022-09-03T02:39:41;20.30;99.90
24158;DHT22;12316;50.904;4.200;2022-09-03T02:42:09;20.30;99.90
24158;DHT22;12316;50.904;4.200;2022-09-03T02:44:40;20.40;99.90
24158;DHT22;12316;50.904;4.200;2022-09-03T02:47:09;20.30;99.90
24158;DHT22;12316;50.904;4.200;2022-09-03T02:49:35;20.40;99.90
24158;DHT22;12316;50.904;4.200;2022-09-03T02:52:03;20.40;99.90
24158;DHT22;12316;50.904;4.200;2022-09-03T02:54:32;20.40;99.90
24158;DHT22;12316;50.904;4.200;2022-09-03T02:57:02;20.40;99.90
24158;DHT22;12316;50.904;4.200;2022-09-03T02:59:27;20.40;99.90
24158;DHT22;12316;50.904;4.200;2022-09-03T03:01:54;20.30;99.90
24158;DHT22;12316;50.904;4.200;2022-09-03T03:04:20;20.30;99.90
24158;DHT22;12316;50.904;4.200;2022-09-03T03:06:45;20.30;99.90
24158;DHT22;12316;50.904;4.200;2022-09-03T03:09:11;20.40;99.90
24158;DHT22;12316;50.904;4.200;2022-09-03T03:11:37;20.40;99.90
24158;DHT22;12316;50.904;4.200;2022-09-03T03:14:05;20.50;99.90
24158;DHT22;12316;50.904;4.200;2022-09-03T03:16:31;20.40;99.90
24158;DHT22;12316;50.904;4.200;2022-09-03T03:18:56;20.50;99.90
24158;DHT22;12316;50.904;4.200;2022-09-03T03:21:22;20.50;99.90
24158;DHT22;12316;50.904;4.200;2022-09-03T03:23:47;20.50;99.90
24158;DHT22;12316;50.904;4.200;2022-09-03T03:26:16;20.60;99.90
24158;DHT22;12316;50.904;4.200;2022-09-03T03:28:43;20.70;99.90
24158;DHT22;12316;50.904;4.200;2022-09-03T03:31:17;20.70;99.90
24158;DHT22;12316;50.904;4.200;2022-09-03T03:33:43;20.80;99.90
24158;DHT22;12316;50.904;4.200;2022-09-03T03:36:13;20.80;99.90
24158;DHT22;12316;50.904;4.200;2022-09-03T03:38:41;20.80;99.90
24158;DHT22;12316;50.904;4.200;2022-09-03T03:41:17;20.80;99.90
24158;DHT22;12316;50.904;4.200;2022-09-03T03:43:44;20.80;99.90
24158;DHT22;12316;50.904;4.200;2022-09-03T03:46:10;20.70;99.90
24158;DHT22;12316;50.904;4.200;2022-09-03T03:48:36;20.70;99.90
24158;DHT22;12316;50.904;4.200;2022-09-03T03:51:05;20.70;99.90
24158;DHT22;12316;50.904;4.200;2022-09-03T03:53:32;20.70;99.90
24158;DHT22;12316;50.904;4.200;2022-09-03T03:56:00;20.70;99.90
24158;DHT22;12316;50.904;4.200;2022-09-03T03:58:31;20.70;99.90
24158;DHT22;12316;50.904;4.200;2022-09-03T04:01:11;20.70;99.90
24158;DHT22;12316;50.904;4.200;2022-09-03T04:03:37;20.70;99.90
24158;DHT22;12316;50.904;4.200;2022-09-03T04:06:04;20.60;99.90
24158;DHT22;12316;50.904;4.200;2022-09-03T04:08:33;20.60;99.90
24158;DHT22;12316;50.904;4.200;2022-09-03T04:11:00;20.60;99.90
24158;DHT22;12316;50.904;4.200;2022-09-03T04:13:30;20.60;99.90
24158;DHT22;12316;50.904;4.200;2022-09-03T04:16:10;20.50;99.90
24158;DHT22;12316;50.904;4.200;2022-09-03T04:18:37;20.50;99.90
24158;DHT22;12316;50.904;4.200;2022-09-03T04:21:23;20.50;99.90
24158;DHT22;12316;50.904;4.200;2022-09-03T04:23:50;20.50;99.90
24158;DHT22;12316;50.904;4.200;2022-09-03T04:26:27;20.50;99.90
24158;DHT22;12316;50.904;4.200;2022-09-03T04:28:56;20.50;99.90
24158;DHT22;12316;50.904;4.200;2022-09-03T04:31:22;20.50;99.90
24158;DHT22;12316;50.904;4.200;2022-09-03T04:33:48;20.40;99.90
24158;DHT22;12316;50.904;4.200;2022-09-03T04:36:15;20.40;99.90
24158;DHT22;12316;50.904;4.200;2022-09-03T04:38:43;20.40;99.90
24158;DHT22;12316;50.904;4.200;2022-09-03T04:41:11;20.40;99.90
24158;DHT22;12316;50.904;4.200;2022-09-03T04:43:38;20.40;99.90
24158;DHT22;12316;50.904;4.200;2022-09-03T04:46:06;20.40;99.90
24158;DHT22;12316;50.904;4.200;2022-09-03T04:48:33;20.40;99.90
24158;DHT22;12316;50.904;4.200;2022-09-03T04:51:14;20.50;99.90
24158;DHT22;12316;50.904;4.200;2022-09-03T04:53:45;20.50;99.90
24158;DHT22;12316;50.904;4.200;2022-09-03T04:58:43;20.50;99.90
24158;DHT22;12316;50.904;4.200;2022-09-03T05:01:14;20.50;99.90
24158;DHT22;12316;50.904;4.200;2022-09-03T05:03:40;20.50;99.90
24158;DHT22;12316;50.904;4.200;2022-09-03T05:06:06;20.50;99.90
24158;DHT22;12316;50.904;4.200;2022-09-03T05:08:33;20.50;99.90
24158;DHT22;12316;50.904;4.200;2022-09-03T05:11:03;20.50;99.90
24158;DHT22;12316;50.904;4.200;2022-09-03T05:13:30;20.40;99.90
24158;DHT22;12316;50.904;4.200;2022-09-03T05:16:13;20.40;99.90
24158;DHT22;12316;50.904;4.200;2022-09-03T05:18:39;20.40;99.90
24158;DHT22;12316;50.904;4.200;2022-09-03T05:21:17;20.40;99.90
24158;DHT22;12316;50.904;4.200;2022-09-03T05:23:44;20.40;99.90
24158;DHT22;12316;50.904;4.200;2022-09-03T05:26:15;20.40;99.90
24158;DHT22;12316;50.904;4.200;2022-09-03T05:28:42;20.40;99.90
24158;DHT22;12316;50.904;4.200;2022-09-03T05:31:17;20.40;99.90
24158;DHT22;12316;50.904;4.200;2022-09-03T05:33:45;20.50;99.90
24158;DHT22;12316;50.904;4.200;2022-09-03T05:36:13;20.50;99.90
24158;DHT22;12316;50.904;4.200;2022-09-03T05:38:41;20.60;99.90
24158;DHT22;12316;50.904;4.200;2022-09-03T05:41:09;20.60;99.90
24158;DHT22;12316;50.904;4.200;2022-09-03T05:43:35;20.70;99.90
24158;DHT22;12316;50.904;4.200;2022-09-03T05:46:10;20.70;99.90
24158;DHT22;12316;50.904;4.200;2022-09-03T05:48:37;20.70;99.90
24158;DHT22;12316;50.904;4.200;2022-09-03T05:51:08;20.70;99.90
24158;DHT22;12316;50.904;4.200;2022-09-03T05:53:36;20.80;99.90
24158;DHT22;12316;50.904;4.200;2022-09-03T05:56:07;20.80;99.90
24158;DHT22;12316;50.904;4.200;2022-09-03T05:58:56;20.90;99.90
24158;DHT22;12316;50.904;4.200;2022-09-03T06:01:30;20.90;99.90
24158;DHT22;12316;50.904;4.200;2022-09-03T06:03:58;20.90;99.90
24158;DHT22;12316;50.904;4.200;2022-09-03T06:06:26;20.90;99.90
24158;DHT22;12316;50.904;4.200;2022-09-03T06:08:52;20.90;99.90
24158;DHT22;12316;50.904;4.200;2022-09-03T06:11:19;21.00;99.90
24158;DHT22;12316;50.904;4.200;2022-09-03T06:13:45;21.10;99.90
24158;DHT22;12316;50.904;4.200;2022-09-03T06:16:12;21.20;99.90
24158;DHT22;12316;50.904;4.200;2022-09-03T06:18:37;21.20;99.90
24158;DHT22;12316;50.904;4.200;2022-09-03T06:21:05;21.30;99.90
24158;DHT22;12316;50.904;4.200;2022-09-03T06:23:34;21.30;99.90
24158;DHT22;12316;50.904;4.200;2022-09-03T06:26:06;21.30;99.90
24158;DHT22;12316;50.904;4.200;2022-09-03T06:28:33;21.30;99.90
24158;DHT22;12316;50.904;4.200;2022-09-03T06:31:01;21.40;99.90
24158;DHT22;12316;50.904;4.200;2022-09-03T06:33:28;21.40;99.90
24158;DHT22;12316;50.904;4.200;2022-09-03T06:35:58;21.50;99.90
24158;DHT22;12316;50.904;4.200;2022-09-03T06:38:26;21.60;99.90
24158;DHT22;12316;50.904;4.200;2022-09-03T06:40:57;21.60;99.90
24158;DHT22;12316;50.904;4.200;2022-09-03T06:43:24;21.70;99.90
24158;DHT22;12316;50.904;4.200;2022-09-03T06:45:58;21.70;99.90
24158;DHT22;12316;50.904;4.200;2022-09-03T06:48:25;21.70;99.90
24158;DHT22;12316;50.904;4.200;2022-09-03T06:53:23;21.80;99.90
24158;DHT22;12316;50.904;4.200;2022-09-03T06:55:56;21.80;99.90
24158;DHT22;12316;50.904;4.200;2022-09-03T06:58:23;21.90;99.90
24158;DHT22;12316;50.904;4.200;2022-09-03T07:00:49;22.00;99.90
24158;DHT22;12316;50.904;4.200;2022-09-03T07:03:17;22.00;99.90
24158;DHT22;12316;50.904;4.200;2022-09-03T07:05:44;22.10;99.90
24158;DHT22;12316;50.904;4.200;2022-09-03T07:08:10;22.20;99.90
24158;DHT22;12316;50.904;4.200;2022-09-03T07:10:36;22.20;99.90
24158;DHT22;12316;50.904;4.200;2022-09-03T07:13:03;22.30;99.90
24158;DHT22;12316;50.904;4.200;2022-09-03T07:15:34;22.30;99.90
24158;DHT22;12316;50.904;4.200;2022-09-03T07:17:59;22.40;99.90
24158;DHT22;12316;50.904;4.200;2022-09-03T07:20:25;22.50;99.90
24158;DHT22;12316;50.904;4.200;2022-09-03T07:22:54;22.50;99.90
24158;DHT22;12316;50.904;4.200;2022-09-03T07:25:20;22.50;99.90
24158;DHT22;12316;50.904;4.200;2022-09-03T07:27:46;22.60;99.90
24158;DHT22;12316;50.904;4.200;2022-09-03T07:30:13;22.60;99.90
24158;DHT22;12316;50.904;4.200;2022-09-03T07:32:38;22.70;99.90
24158;DHT22;12316;50.904;4.200;2022-09-03T07:35:05;22.70;99.90
24158;DHT22;12316;50.904;4.200;2022-09-03T07:37:31;22.70;99.90
24158;DHT22;12316;50.904;4.200;2022-09-03T07:39:58;22.70;99.90
24158;DHT22;12316;50.904;4.200;2022-09-03T07:42:23;22.80;99.90
24158;DHT22;12316;50.904;4.200;2022-09-03T07:44:51;22.80;99.90
24158;DHT22;12316;50.904;4.200;2022-09-03T07:47:17;22.80;99.90
24158;DHT22;12316;50.904;4.200;2022-09-03T07:49:42;22.90;99.90
24158;DHT22;12316;50.904;4.200;2022-09-03T07:52:08;22.90;99.60
24158;DHT22;12316;50.904;4.200;2022-09-03T07:54:34;22.90;99.60
24158;DHT22;12316;50.904;4.200;2022-09-03T07:57:00;23.00;99.40
24158;DHT22;12316;50.904;4.200;2022-09-03T07:59:26;23.10;99.30
24158;DHT22;12316;50.904;4.200;2022-09-03T08:01:51;23.20;99.00
24158;DHT22;12316;50.904;4.200;2022-09-03T08:04:17;23.40;99.00
24158;DHT22;12316;50.904;4.200;2022-09-03T08:06:43;23.50;98.50
24158;DHT22;12316;50.904;4.200;2022-09-03T08:09:10;23.60;98.30
24158;DHT22;12316;50.904;4.200;2022-09-03T08:11:40;23.80;98.00
24158;DHT22;12316;50.904;4.200;2022-09-03T08:14:09;24.00;97.80
24158;DHT22;12316;50.904;4.200;2022-09-03T08:16:37;24.20;97.90
24158;DHT22;12316;50.904;4.200;2022-09-03T08:19:03;24.30;97.40
24158;DHT22;12316;50.904;4.200;2022-09-03T08:21:31;24.50;96.80
24158;DHT22;12316;50.904;4.200;2022-09-03T08:23:57;24.70;96.80
24158;DHT22;12316;50.904;4.200;2022-09-03T08:26:30;25.00;96.40
24158;DHT22;12316;50.904;4.200;2022-09-03T08:28:58;25.20;95.70
24158;DHT22;12316;50.904;4.200;2022-09-03T08:31:24;25.20;95.20
24158;DHT22;12316;50.904;4.200;2022-09-03T08:33:53;25.40;95.30
24158;DHT22;12316;50.904;4.200;2022-09-03T08:36:27;25.50;95.10
24158;DHT22;12316;50.904;4.200;2022-09-03T08:39:01;25.60;95.00
24158;DHT22;12316;50.904;4.200;2022-09-03T08:41:59;25.70;94.80
24158;DHT22;12316;50.904;4.200;2022-09-03T08:52:47;25.90;94.20
24158;DHT22;12316;50.904;4.200;2022-09-03T08:55:22;26.00;94.10
24158;DHT22;12316;50.904;4.200;2022-09-03T08:57:54;26.20;93.90
24158;DHT22;12316;50.904;4.200;2022-09-03T09:00:22;26.40;93.60
24158;DHT22;12316;50.904;4.200;2022-09-03T09:02:52;26.40;93.60
24158;DHT22;12316;50.904;4.200;2022-09-03T09:05:42;26.50;93.40
24158;DHT22;12316;50.904;4.200;2022-09-03T09:08:20;26.60;93.40
24158;DHT22;12316;50.904;4.200;2022-09-03T09:11:23;26.60;93.30
24158;DHT22;12316;50.904;4.200;2022-09-03T09:16:22;26.70;92.90
24158;DHT22;12316;50.904;4.200;2022-09-03T09:24:03;26.40;92.90
24158;DHT22;12316;50.904;4.200;2022-09-03T09:26:32;26.40;93.20
24158;DHT22;12316;50.904;4.200;2022-09-03T09:29:07;26.30;93.20
24158;DHT22;12316;50.904;4.200;2022-09-03T09:31:38;26.30;93.30
24158;DHT22;12316;50.904;4.200;2022-09-03T09:34:05;26.40;93.60
24158;DHT22;12316;50.904;4.200;2022-09-03T09:36:40;26.70;93.80
24158;DHT22;12316;50.904;4.200;2022-09-03T09:39:08;27.00;93.50
24158;DHT22;12316;50.904;4.200;2022-09-03T09:41:34;27.30;92.90
24158;DHT22;12316;50.904;4.200;2022-09-03T09:44:01;27.50;92.60
24158;DHT22;12316;50.904;4.200;2022-09-03T09:46:38;27.50;92.20
24158;DHT22;12316;50.904;4.200;2022-09-03T09:49:29;27.50;92.30
24158;DHT22;12316;50.904;4.200;2022-09-03T09:52:06;27.70;92.40
24158;DHT22;12316;50.904;4.200;2022-09-03T09:54:33;27.90;92.40
24158;DHT22;12316;50.904;4.200;2022-09-03T09:57:01;27.90;91.90
24158;DHT22;12316;50.904;4.200;2022-09-03T09:59:29;27.90;91.90
24158;DHT22;12316;50.904;4.200;2022-09-03T10:02:10;27.80;91.80
24158;DHT22;12316;50.904;4.200;2022-09-03T10:04:37;27.80;91.70
24158;DHT22;12316;50.904;4.200;2022-09-03T10:07:29;27.80;91.80
24158;DHT22;12316;50.904;4.200;2022-09-03T10:10:14;27.70;91.70
24158;DHT22;12316;50.904;4.200;2022-09-03T10:13:00;27.70;91.80
24158;DHT22;12316;50.904;4.200;2022-09-03T10:15:36;27.60;91.90
24158;DHT22;12316;50.904;4.200;2022-09-03T10:18:16;27.70;92.00
24158;DHT22;12316;50.904;4.200;2022-09-03T10:20:50;27.80;92.10
24158;DHT22;12316;50.904;4.200;2022-09-03T10:23:26;27.90;92.10
24158;DHT22;12316;50.904;4.200;2022-09-03T10:26:03;28.10;92.00
24158;DHT22;12316;50.904;4.200;2022-09-03T10:28:37;28.20;91.60
24158;DHT22;12316;50.904;4.200;2022-09-03T10:33:53;28.40;91.30
24158;DHT22;12316;50.904;4.200;2022-09-03T10:36:29;28.40;91.20
24158;DHT22;12316;50.904;4.200;2022-09-03T10:44:36;28.50;91.20
24158;DHT22;12316;50.904;4.200;2022-09-03T10:50:29;28.70;91.20
24158;DHT22;12316;50.904;4.200;2022-09-03T11:07:07;28.70;90.40
24158;DHT22;12316;50.904;4.200;2022-09-03T11:10:06;28.70;90.20
24158;DHT22;12316;50.904;4.200;2022-09-03T11:12:39;28.80;89.80
24158;DHT22;12316;50.904;4.200;2022-09-03T11:15:22;28.80;89.40
24158;DHT22;12316;50.904;4.200;2022-09-03T11:20:43;28.90;88.80
24158;DHT22;12316;50.904;4.200;2022-09-03T11:23:10;29.10;89.40
24158;DHT22;12316;50.904;4.200;2022-09-03T11:25:48;29.10;88.50
24158;DHT22;12316;50.904;4.200;2022-09-03T11:28:37;29.10;88.60
24158;DHT22;12316;50.904;4.200;2022-09-03T11:31:30;29.10;88.70
24158;DHT22;12316;50.904;4.200;2022-09-03T11:34:07;29.10;89.10
24158;DHT22;12316;50.904;4.200;2022-09-03T11:36:36;29.00;88.00
24158;DHT22;12316;50.904;4.200;2022-09-03T11:39:19;29.00;87.80
24158;DHT22;12316;50.904;4.200;2022-09-03T11:41:57;28.60;87.60
24158;DHT22;12316;50.904;4.200;2022-09-03T11:44:25;28.70;88.50
24158;DHT22;12316;50.904;4.200;2022-09-03T11:47:00;28.70;88.50
24158;DHT22;12316;50.904;4.200;2022-09-03T11:49:29;28.80;88.30
24158;DHT22;12316;50.904;4.200;2022-09-03T11:52:02;28.70;88.10
24158;DHT22;12316;50.904;4.200;2022-09-03T11:54:31;28.80;88.00
24158;DHT22;12316;50.904;4.200;2022-09-03T11:57:27;28.90;88.60
24158;DHT22;12316;50.904;4.200;2022-09-03T12:00:07;29.00;87.30
24158;DHT22;12316;50.904;4.200;2022-09-03T12:02:35;29.10;86.40
24158;DHT22;12316;50.904;4.200;2022-09-03T12:16:29;29.70;84.90
24158;DHT22;12316;50.904;4.200;2022-09-03T12:19:10;29.80;83.90
24158;DHT22;12316;50.904;4.200;2022-09-03T12:21:39;29.80;84.40
24158;DHT22;12316;50.904;4.200;2022-09-03T12:24:07;29.80;81.90
24158;DHT22;12316;50.904;4.200;2022-09-03T12:26:41;29.60;81.70
24158;DHT22;12316;50.904;4.200;2022-09-03T12:29:19;29.50;84.20
24158;DHT22;12316;50.904;4.200;2022-09-03T12:31:48;29.70;83.90
24158;DHT22;12316;50.904;4.200;2022-09-03T12:34:17;29.80;83.10
24158;DHT22;12316;50.904;4.200;2022-09-03T12:36:48;29.90;81.80
24158;DHT22;12316;50.904;4.200;2022-09-03T12:39:19;29.70;80.80
24158;DHT22;12316;50.904;4.200;2022-09-03T12:42:09;29.60;81.90
24158;DHT22;12316;50.904;4.200;2022-09-03T12:44:39;29.80;82.00
24158;DHT22;12316;50.904;4.200;2022-09-03T12:47:12;30.00;80.70
24158;DHT22;12316;50.904;4.200;2022-09-03T12:52:17;30.10;80.30
24158;DHT22;12316;50.904;4.200;2022-09-03T12:54:55;30.20;80.70
24158;DHT22;12316;50.904;4.200;2022-09-03T12:57:26;30.10;79.30
24158;DHT22;12316;50.904;4.200;2022-09-03T12:59:57;29.80;79.50
24158;DHT22;12316;50.904;4.200;2022-09-03T13:02:34;29.80;79.80
24158;DHT22;12316;50.904;4.200;2022-09-03T13:05:02;29.80;80.50
24158;DHT22;12316;50.904;4.200;2022-09-03T13:07:37;29.80;81.10
24158;DHT22;12316;50.904;4.200;2022-09-03T13:10:06;29.80;80.60
24158;DHT22;12316;50.904;4.200;2022-09-03T13:12:43;29.80;80.30
24158;DHT22;12316;50.904;4.200;2022-09-03T13:15:18;29.70;80.70
24158;DHT22;12316;50.904;4.200;2022-09-03T13:18:08;29.60;80.70
24158;DHT22;12316;50.904;4.200;2022-09-03T13:23:39;29.50;81.40
24158;DHT22;12316;50.904;4.200;2022-09-03T13:29:06;29.70;81.30
24158;DHT22;12316;50.904;4.200;2022-09-03T13:31:49;29.80;81.60
24158;DHT22;12316;50.904;4.200;2022-09-03T13:34:19;29.90;82.10
24158;DHT22;12316;50.904;4.200;2022-09-03T13:36:48;30.00;81.40
24158;DHT22;12316;50.904;4.200;2022-09-03T13:39:52;29.80;80.20
24158;DHT22;12316;50.904;4.200;2022-09-03T13:42:24;29.70;80.30
24158;DHT22;12316;50.904;4.200;2022-09-03T13:45:10;29.60;80.10
24158;DHT22;12316;50.904;4.200;2022-09-03T13:47:42;29.60;80.80
24158;DHT22;12316;50.904;4.200;2022-09-03T13:50:41;29.30;79.70
24158;DHT22;12316;50.904;4.200;2022-09-03T13:55:52;29.30;80.30
24158;DHT22;12316;50.904;4.200;2022-09-03T13:58:34;29.20;81.50
24158;DHT22;12316;50.904;4.200;2022-09-03T14:04:01;29.20;81.50
24158;DHT22;12316;50.904;4.200;2022-09-03T14:07:27;29.10;80.10
24158;DHT22;12316;50.904;4.200;2022-09-03T14:09:34;29.10;80.30
24158;DHT22;12316;50.904;4.200;2022-09-03T14:17:37;28.80;82.30
24158;DHT22;12316;50.904;4.200;2022-09-03T14:20:25;28.80;82.50
24158;DHT22;12316;50.904;4.200;2022-09-03T14:23:02;28.80;80.70
24158;DHT22;12316;50.904;4.200;2022-09-03T14:25:29;28.90;80.90
24158;DHT22;12316;50.904;4.200;2022-09-03T14:31:15;28.80;82.00
24158;DHT22;12316;50.904;4.200;2022-09-03T14:34:04;28.90;82.30
24158;DHT22;12316;50.904;4.200;2022-09-03T14:36:54;28.80;82.50
24158;DHT22;12316;50.904;4.200;2022-09-03T14:42:16;28.50;84.30
24158;DHT22;12316;50.904;4.200;2022-09-03T14:45:23;28.50;84.90
24158;DHT22;12316;50.904;4.200;2022-09-03T15:01:32;28.40;82.60
24158;DHT22;12316;50.904;4.200;2022-09-03T15:09:41;28.50;82.80
24158;DHT22;12316;50.904;4.200;2022-09-03T15:12:18;28.60;82.00
24158;DHT22;12316;50.904;4.200;2022-09-03T15:18:16;28.90;82.10
24158;DHT22;12316;50.904;4.200;2022-09-03T15:20:51;29.20;81.40
24158;DHT22;12316;50.904;4.200;2022-09-03T15:23:24;29.50;80.90
24158;DHT22;12316;50.904;4.200;2022-09-03T15:35:03;29.70;76.10
24158;DHT22;12316;50.904;4.200;2022-09-03T15:37:44;29.40;76.40
24158;DHT22;12316;50.904;4.200;2022-09-03T15:40:40;29.30;77.50
24158;DHT22;12316;50.904;4.200;2022-09-03T15:45:51;29.20;78.50
24158;DHT22;12316;50.904;4.200;2022-09-03T15:48:29;29.20;78.90
24158;DHT22;12316;50.904;4.200;2022-09-03T15:53:52;29.30;79.40
24158;DHT22;12316;50.904;4.200;2022-09-03T15:56:35;29.30;79.50
24158;DHT22;12316;50.904;4.200;2022-09-03T15:59:14;29.40;79.70
24158;DHT22;12316;50.904;4.200;2022-09-03T16:12:39;29.30;79.80
24158;DHT22;12316;50.904;4.200;2022-09-03T16:15:24;29.20;79.80
24158;DHT22;12316;50.904;4.200;2022-09-03T16:20:47;28.90;80.80
24158;DHT22;12316;50.904;4.200;2022-09-03T16:26:00;28.80;81.40
24158;DHT22;12316;50.904;4.200;2022-09-03T16:28:46;28.80;82.00
24158;DHT22;12316;50.904;4.200;2022-09-03T16:37:48;28.80;82.20
24158;DHT22;12316;50.904;4.200;2022-09-03T16:40:17;28.80;82.20
24158;DHT22;12316;50.904;4.200;2022-09-03T16:43:02;28.80;82.00
24158;DHT22;12316;50.904;4.200;2022-09-03T16:51:32;28.60;82.70
24158;DHT22;12316;50.904;4.200;2022-09-03T16:54:30;28.50;82.90
24158;DHT22;12316;50.904;4.200;2022-09-03T17:04:52;28.10;84.00
24158;DHT22;12316;50.904;4.200;2022-09-03T17:07:31;28.00;84.40
24158;DHT22;12316;50.904;4.200;2022-09-03T17:21:30;27.60;85.70
24158;DHT22;12316;50.904;4.200;2022-09-03T17:24:27;27.50;85.90
24158;DHT22;12316;50.904;4.200;2022-09-03T17:27:16;27.40;87.00
24158;DHT22;12316;50.904;4.200;2022-09-03T17:30:06;27.20;87.80
24158;DHT22;12316;50.904;4.200;2022-09-03T17:36:12;26.90;89.00
24158;DHT22;12316;50.904;4.200;2022-09-03T17:41:50;26.80;89.10
24158;DHT22;12316;50.904;4.200;2022-09-03T17:49:57;26.50;90.10
24158;DHT22;12316;50.904;4.200;2022-09-03T17:55:01;26.30;90.20
24158;DHT22;12316;50.904;4.200;2022-09-03T17:57:50;26.30;90.20
24158;DHT22;12316;50.904;4.200;2022-09-03T18:00:26;26.30;90.40
24158;DHT22;12316;50.904;4.200;2022-09-03T18:03:12;26.20;90.40
24158;DHT22;12316;50.904;4.200;2022-09-03T18:06:08;26.10;90.70
24158;DHT22;12316;50.904;4.200;2022-09-03T18:16:40;25.60;91.60
24158;DHT22;12316;50.904;4.200;2022-09-03T18:19:38;25.50;91.90
24158;DHT22;12316;50.904;4.200;2022-09-03T18:22:35;25.40;92.20
24158;DHT22;12316;50.904;4.200;2022-09-03T18:25:23;25.20;92.70
24158;DHT22;12316;50.904;4.200;2022-09-03T18:28:09;25.00;93.30
24158;DHT22;12316;50.904;4.200;2022-09-03T18:30:55;24.90;93.50
24158;DHT22;12316;50.904;4.200;2022-09-03T18:33:39;24.70;93.70
24158;DHT22;12316;50.904;4.200;2022-09-03T18:36:23;24.60;94.20
24158;DHT22;12316;50.904;4.200;2022-09-03T18:39:15;24.40;94.50
24158;DHT22;12316;50.904;4.200;2022-09-03T18:42:24;24.30;94.80
24158;DHT22;12316;50.904;4.200;2022-09-03T18:48:45;24.00;95.30
24158;DHT22;12316;50.904;4.200;2022-09-03T19:00:47;23.50;97.20
24158;DHT22;12316;50.904;4.200;2022-09-03T19:03:57;23.40;97.40
24158;DHT22;12316;50.904;4.200;2022-09-03T19:10:05;23.50;97.60
24158;DHT22;12316;50.904;4.200;2022-09-03T19:15:52;23.60;97.50
24158;DHT22;12316;50.904;4.200;2022-09-03T19:21:49;23.50;97.60
24158;DHT22;12316;50.904;4.200;2022-09-03T19:24:35;23.50;97.60
24158;DHT22;12316;50.904;4.200;2022-09-03T19:27:28;23.50;97.60
24158;DHT22;12316;50.904;4.200;2022-09-03T19:30:23;23.40;97.70
24158;DHT22;12316;50.904;4.200;2022-09-03T19:33:25;23.40;97.90
24158;DHT22;12316;50.904;4.200;2022-09-03T19:36:39;23.40;97.90
24158;DHT22;12316;50.904;4.200;2022-09-03T19:39:36;23.40;98.00
24158;DHT22;12316;50.904;4.200;2022-09-03T19:45:51;23.20;98.30
24158;DHT22;12316;50.904;4.200;2022-09-03T19:52:00;23.00;99.10
24158;DHT22;12316;50.904;4.200;2022-09-03T19:54:49;23.00;99.50
24158;DHT22;12316;50.904;4.200;2022-09-03T19:57:36;22.70;99.90
24158;DHT22;12316;50.904;4.200;2022-09-03T20:00:20;22.60;99.90
24158;DHT22;12316;50.904;4.200;2022-09-03T20:03:04;22.50;99.90
24158;DHT22;12316;50.904;4.200;2022-09-03T20:05:49;22.40;99.90
24158;DHT22;12316;50.904;4.200;2022-09-03T20:08:34;22.30;99.90
24158;DHT22;12316;50.904;4.200;2022-09-03T20:11:20;22.30;99.90
24158;DHT22;12316;50.904;4.200;2022-09-03T20:13:47;22.20;99.90
24158;DHT22;12316;50.904;4.200;2022-09-03T20:31:04;21.80;99.90
24158;DHT22;12316;50.904;4.200;2022-09-03T20:36:47;21.70;99.90
24158;DHT22;12316;50.904;4.200;2022-09-03T20:39:27;21.60;99.90
24158;DHT22;12316;50.904;4.200;2022-09-03T20:55:41;21.10;99.90
24158;DHT22;12316;50.904;4.200;2022-09-03T20:58:28;21.00;99.90
24158;DHT22;12316;50.904;4.200;2022-09-03T21:01:08;20.90;99.90
24158;DHT22;12316;50.904;4.200;2022-09-03T21:04:45;20.90;99.90
24158;DHT22;12316;50.904;4.200;2022-09-03T21:09:24;21.10;99.90
24158;DHT22;12316;50.904;4.200;2022-09-03T21:12:15;21.00;99.90
24158;DHT22;12316;50.904;4.200;2022-09-03T21:14:56;21.00;99.90
24158;DHT22;12316;50.904;4.200;2022-09-03T21:23:08;20.90;99.90
24158;DHT22;12316;50.904;4.200;2022-09-03T21:25:41;20.80;99.90
24158;DHT22;12316;50.904;4.200;2022-09-03T21:28:16;20.80;99.90
24158;DHT22;12316;50.904;4.200;2022-09-03T21:30:47;20.80;99.90